sensor_id;sensor_type;location;lat;lon;timestamp;P1;durP1;ratioP1;P2;durP2;ratioP2
16099;SDS011;8154;50.830;12.082;2023-08-01T00:01:00;4.15;;;1.60;;
16099;SDS011;8154;50.830;12.082;2023-08-01T00:03:27;4.57;;;1.90;;
16099;SDS011;8154;50.830;12.082;2023-08-01T00:05:54;4.82;;;2.13;;
16099;SDS011;8154;50.830;12.082;2023-08-01T00:08:21;4.67;;;2.00;;
16099;SDS011;8154;50.830;12.082;2023-08-01T00:10:48;4.65;;;2.20;;
16099;SDS011;8154;50.830;12.082;2023-08-01T00:13:15;5.28;;;2.17;;
16099;SDS011;8154;50.830;12.082;2023-08-01T00:15:42;4.68;;;1.80;;
16099;SDS011;8154;50.830;12.082;2023-08-01T00:18:10;4.60;;;1.90;;
16099;SDS011;8154;50.830;12.082;2023-08-01T00:20:38;4.80;;;2.07;;
16099;SDS011;8154;50.830;12.082;2023-08-01T00:23:05;4.75;;;2.00;;
16099;SDS011;8154;50.830;12.082;2023-08-01T00:25:32;4.68;;;1.73;;
16099;SDS011;8154;50.830;12.082;2023-08-01T00:27:59;4.40;;;2.10;;
16099;SDS011;8154;50.830;12.082;2023-08-01T00:30:26;5.18;;;1.90;;
16099;SDS011;8154;50.830;12.082;2023-08-01T00:32:54;4.80;;;1.70;;
16099;SDS011;8154;50.830;12.082;2023-08-01T00:35:20;4.43;;;2.00;;
16099;SDS011;8154;50.830;12.082;2023-08-01T00:37:47;3.45;;;1.55;;
16099;SDS011;8154;50.830;12.082;2023-08-01T00:40:14;4.55;;;1.80;;
16099;SDS011;8154;50.830;12.082;2023-08-01T00:42:42;4.90;;;2.22;;
16099;SDS011;8154;50.830;12.082;2023-08-01T00:45:10;5.00;;;2.10;;
16099;SDS011;8154;50.830;12.082;2023-08-01T00:47:37;5.25;;;2.22;;
16099;SDS011;8154;50.830;12.082;2023-08-01T00:50:05;4.07;;;1.75;;
16099;SDS011;8154;50.830;12.082;2023-08-01T00:52:33;4.35;;;2.08;;
16099;SDS011;8154;50.830;12.082;2023-08-01T00:55:01;4.40;;;1.90;;
16099;SDS011;8154;50.830;12.082;2023-08-01T00:57:28;4.73;;;1.93;;
16099;SDS011;8154;50.830;12.082;2023-08-01T00:59:56;4.70;;;1.90;;
16099;SDS011;8154;50.830;12.082;2023-08-01T01:02:23;4.68;;;2.00;;
16099;SDS011;8154;50.830;12.082;2023-08-01T01:04:50;3.78;;;1.90;;
16099;SDS011;8154;50.830;12.082;2023-08-01T01:07:17;4.22;;;1.80;;
16099;SDS011;8154;50.830;12.082;2023-08-01T01:09:45;5.30;;;2.10;;
16099;SDS011;8154;50.830;12.082;2023-08-01T01:12:12;4.55;;;1.80;;
16099;SDS011;8154;50.830;12.082;2023-08-01T01:14:39;5.05;;;2.10;;
16099;SDS011;8154;50.830;12.082;2023-08-01T01:17:06;4.32;;;2.03;;
16099;SDS011;8154;50.830;12.082;2023-08-01T01:19:32;4.15;;;1.70;;
16099;SDS011;8154;50.830;12.082;2023-08-01T01:22:04;4.73;;;2.00;;
16099;SDS011;8154;50.830;12.082;2023-08-01T01:24:32;4.88;;;2.10;;
16099;SDS011;8154;50.830;12.082;2023-08-01T01:27:01;4.43;;;1.90;;
16099;SDS011;8154;50.830;12.082;2023-08-01T01:29:31;4.45;;;2.00;;
16099;SDS011;8154;50.830;12.082;2023-08-01T01:32:03;5.25;;;1.90;;
16099;SDS011;8154;50.830;12.082;2023-08-01T01:34:30;4.30;;;2.00;;
16099;SDS011;8154;50.830;12.082;2023-08-01T01:36:58;4.45;;;1.70;;
16099;SDS011;8154;50.830;12.082;2023-08-01T01:39:25;4.70;;;1.88;;
16099;SDS011;8154;50.830;12.082;2023-08-01T01:41:51;4.18;;;1.80;;
16099;SDS011;8154;50.830;12.082;2023-08-01T01:44:18;4.25;;;1.83;;
16099;SDS011;8154;50.830;12.082;2023-08-01T01:46:46;3.80;;;1.73;;
16099;SDS011;8154;50.830;12.082;2023-08-01T01:49:15;4.60;;;2.00;;
16099;SDS011;8154;50.830;12.082;2023-08-01T01:51:42;4.50;;;1.73;;
16099;SDS011;8154;50.830;12.082;2023-08-01T01:54:09;4.57;;;1.75;;
16099;SDS011;8154;50.830;12.082;2023-08-01T01:56:36;4.45;;;2.00;;
16099;SDS011;8154;50.830;12.082;2023-08-01T01:59:04;4.53;;;1.80;;
16099;SDS011;8154;50.830;12.082;2023-08-01T02:01:31;5.10;;;2.03;;
16099;SDS011;8154;50.830;12.082;2023-08-01T02:03:58;5.00;;;1.90;;
16099;SDS011;8154;50.830;12.082;2023-08-01T02:06:25;4.70;;;1.85;;
16099;SDS011;8154;50.830;12.082;2023-08-01T02:08:52;4.38;;;1.70;;
16099;SDS011;8154;50.830;12.082;2023-08-01T02:11:19;4.67;;;2.00;;
16099;SDS011;8154;50.830;12.082;2023-08-01T02:13:46;3.92;;;1.60;;
16099;SDS011;8154;50.830;12.082;2023-08-01T02:16:12;4.20;;;1.75;;
16099;SDS011;8154;50.830;12.082;2023-08-01T02:18:41;5.03;;;1.85;;
16099;SDS011;8154;50.830;12.082;2023-08-01T02:21:07;4.78;;;1.80;;
16099;SDS011;8154;50.830;12.082;2023-08-01T02:23:33;4.30;;;1.87;;
16099;SDS011;8154;50.830;12.082;2023-08-01T02:26:01;4.10;;;1.83;;
16099;SDS011;8154;50.830;12.082;2023-08-01T02:28:28;3.10;;;1.55;;
16099;SDS011;8154;50.830;12.082;2023-08-01T02:30:54;3.55;;;1.65;;
16099;SDS011;8154;50.830;12.082;2023-08-01T02:33:20;4.30;;;1.90;;
16099;SDS011;8154;50.830;12.082;2023-08-01T02:35:46;3.90;;;1.67;;
16099;SDS011;8154;50.830;12.082;2023-08-01T02:38:13;5.65;;;2.10;;
16099;SDS011;8154;50.830;12.082;2023-08-01T02:40:39;4.50;;;1.77;;
16099;SDS011;8154;50.830;12.082;2023-08-01T02:43:05;4.38;;;1.75;;
16099;SDS011;8154;50.830;12.082;2023-08-01T02:45:32;3.97;;;1.70;;
16099;SDS011;8154;50.830;12.082;2023-08-01T02:47:58;4.20;;;1.70;;
16099;SDS011;8154;50.830;12.082;2023-08-01T02:50:24;4.20;;;1.70;;
16099;SDS011;8154;50.830;12.082;2023-08-01T02:53:01;4.50;;;1.77;;
16099;SDS011;8154;50.830;12.082;2023-08-01T02:55:27;3.95;;;1.73;;
16099;SDS011;8154;50.830;12.082;2023-08-01T02:57:54;4.43;;;1.80;;
16099;SDS011;8154;50.830;12.082;2023-08-01T03:00:20;3.77;;;1.60;;
16099;SDS011;8154;50.830;12.082;2023-08-01T03:02:47;3.67;;;1.50;;
16099;SDS011;8154;50.830;12.082;2023-08-01T03:05:13;4.18;;;1.55;;
16099;SDS011;8154;50.830;12.082;2023-08-01T03:07:39;3.88;;;1.60;;
16099;SDS011;8154;50.830;12.082;2023-08-01T03:10:05;4.95;;;1.77;;
16099;SDS011;8154;50.830;12.082;2023-08-01T03:12:32;3.77;;;1.60;;
16099;SDS011;8154;50.830;12.082;2023-08-01T03:14:58;4.10;;;1.75;;
16099;SDS011;8154;50.830;12.082;2023-08-01T03:17:25;3.45;;;1.58;;
16099;SDS011;8154;50.830;12.082;2023-08-01T03:19:51;3.33;;;1.50;;
16099;SDS011;8154;50.830;12.082;2023-08-01T03:22:23;3.78;;;1.52;;
16099;SDS011;8154;50.830;12.082;2023-08-01T03:24:52;4.10;;;1.57;;
16099;SDS011;8154;50.830;12.082;2023-08-01T03:27:18;3.15;;;1.30;;
16099;SDS011;8154;50.830;12.082;2023-08-01T03:29:45;3.65;;;1.45;;
16099;SDS011;8154;50.830;12.082;2023-08-01T03:32:11;3.50;;;1.48;;
16099;SDS011;8154;50.830;12.082;2023-08-01T03:34:39;4.55;;;1.80;;
16099;SDS011;8154;50.830;12.082;2023-08-01T03:37:06;3.97;;;1.67;;
16099;SDS011;8154;50.830;12.082;2023-08-01T03:39:39;3.80;;;1.50;;
16099;SDS011;8154;50.830;12.082;2023-08-01T03:42:06;4.03;;;1.63;;
16099;SDS011;8154;50.830;12.082;2023-08-01T03:44:32;3.25;;;1.40;;
16099;SDS011;8154;50.830;12.082;2023-08-01T03:46:58;3.45;;;1.70;;
16099;SDS011;8154;50.830;12.082;2023-08-01T03:49:25;4.10;;;1.50;;
16099;SDS011;8154;50.830;12.082;2023-08-01T03:51:51;3.45;;;1.40;;
16099;SDS011;8154;50.830;12.082;2023-08-01T03:54:17;3.20;;;1.45;;
16099;SDS011;8154;50.830;12.082;2023-08-01T03:56:44;3.33;;;1.60;;
16099;SDS011;8154;50.830;12.082;2023-08-01T03:59:15;3.58;;;1.60;;
16099;SDS011;8154;50.830;12.082;2023-08-01T04:01:41;3.57;;;1.60;;
16099;SDS011;8154;50.830;12.082;2023-08-01T04:04:08;2.88;;;1.38;;
16099;SDS011;8154;50.830;12.082;2023-08-01T04:06:35;3.25;;;1.48;;
16099;SDS011;8154;50.830;12.082;2023-08-01T04:09:01;4.00;;;1.70;;
16099;SDS011;8154;50.830;12.082;2023-08-01T04:11:28;3.45;;;1.50;;
16099;SDS011;8154;50.830;12.082;2023-08-01T04:13:56;3.77;;;1.80;;
16099;SDS011;8154;50.830;12.082;2023-08-01T04:16:22;3.72;;;1.67;;
16099;SDS011;8154;50.830;12.082;2023-08-01T04:18:48;3.40;;;1.50;;
16099;SDS011;8154;50.830;12.082;2023-08-01T04:21:15;4.88;;;2.10;;
16099;SDS011;8154;50.830;12.082;2023-08-01T04:23:41;4.95;;;2.15;;
16099;SDS011;8154;50.830;12.082;2023-08-01T04:26:08;4.60;;;2.10;;
16099;SDS011;8154;50.830;12.082;2023-08-01T04:28:34;5.75;;;2.50;;
16099;SDS011;8154;50.830;12.082;2023-08-01T04:31:01;4.70;;;2.10;;
16099;SDS011;8154;50.830;12.082;2023-08-01T04:33:27;5.43;;;2.58;;
16099;SDS011;8154;50.830;12.082;2023-08-01T04:35:53;5.47;;;2.20;;
16099;SDS011;8154;50.830;12.082;2023-08-01T04:38:19;6.13;;;2.63;;
16099;SDS011;8154;50.830;12.082;2023-08-01T04:40:49;5.78;;;2.33;;
16099;SDS011;8154;50.830;12.082;2023-08-01T04:43:14;5.70;;;2.38;;
16099;SDS011;8154;50.830;12.082;2023-08-01T04:45:41;4.15;;;2.20;;
16099;SDS011;8154;50.830;12.082;2023-08-01T04:48:07;4.75;;;2.20;;
16099;SDS011;8154;50.830;12.082;2023-08-01T04:50:33;5.00;;;2.30;;
16099;SDS011;8154;50.830;12.082;2023-08-01T04:53:00;4.25;;;2.00;;
16099;SDS011;8154;50.830;12.082;2023-08-01T04:55:26;4.80;;;2.00;;
16099;SDS011;8154;50.830;12.082;2023-08-01T04:57:53;5.13;;;2.20;;
16099;SDS011;8154;50.830;12.082;2023-08-01T05:00:20;3.72;;;1.90;;
16099;SDS011;8154;50.830;12.082;2023-08-01T05:02:46;4.30;;;2.00;;
16099;SDS011;8154;50.830;12.082;2023-08-01T05:05:12;4.20;;;2.00;;
16099;SDS011;8154;50.830;12.082;2023-08-01T05:07:39;4.30;;;1.60;;
16099;SDS011;8154;50.830;12.082;2023-08-01T05:10:05;4.05;;;1.83;;
16099;SDS011;8154;50.830;12.082;2023-08-01T05:12:32;3.83;;;1.90;;
16099;SDS011;8154;50.830;12.082;2023-08-01T05:14:58;3.97;;;1.70;;
16099;SDS011;8154;50.830;12.082;2023-08-01T05:17:24;4.15;;;1.75;;
16099;SDS011;8154;50.830;12.082;2023-08-01T05:19:50;3.72;;;1.80;;
16099;SDS011;8154;50.830;12.082;2023-08-01T05:22:17;4.53;;;2.03;;
16099;SDS011;8154;50.830;12.082;2023-08-01T05:24:43;4.05;;;1.70;;
16099;SDS011;8154;50.830;12.082;2023-08-01T05:27:09;3.83;;;1.53;;
16099;SDS011;8154;50.830;12.082;2023-08-01T05:29:35;3.70;;;1.42;;
16099;SDS011;8154;50.830;12.082;2023-08-01T05:32:02;3.63;;;1.60;;
16099;SDS011;8154;50.830;12.082;2023-08-01T05:34:29;3.75;;;1.70;;
16099;SDS011;8154;50.830;12.082;2023-08-01T05:36:55;3.63;;;1.60;;
16099;SDS011;8154;50.830;12.082;2023-08-01T05:39:21;3.60;;;1.60;;
16099;SDS011;8154;50.830;12.082;2023-08-01T05:41:47;3.58;;;1.50;;
16099;SDS011;8154;50.830;12.082;2023-08-01T05:44:14;3.88;;;1.40;;
16099;SDS011;8154;50.830;12.082;2023-08-01T05:46:40;2.35;;;1.20;;
16099;SDS011;8154;50.830;12.082;2023-08-01T05:49:07;2.70;;;1.30;;
16099;SDS011;8154;50.830;12.082;2023-08-01T05:51:33;3.33;;;1.40;;
16099;SDS011;8154;50.830;12.082;2023-08-01T05:53:59;3.72;;;1.40;;
16099;SDS011;8154;50.830;12.082;2023-08-01T05:56:26;3.17;;;1.30;;
16099;SDS011;8154;50.830;12.082;2023-08-01T05:58:54;4.22;;;1.70;;
16099;SDS011;8154;50.830;12.082;2023-08-01T06:01:20;3.85;;;1.77;;
16099;SDS011;8154;50.830;12.082;2023-08-01T06:03:47;4.30;;;1.57;;
16099;SDS011;8154;50.830;12.082;2023-08-01T06:06:16;3.90;;;1.50;;
16099;SDS011;8154;50.830;12.082;2023-08-01T06:08:44;3.85;;;1.45;;
16099;SDS011;8154;50.830;12.082;2023-08-01T06:11:12;5.15;;;1.70;;
16099;SDS011;8154;50.830;12.082;2023-08-01T06:13:39;3.97;;;1.55;;
16099;SDS011;8154;50.830;12.082;2023-08-01T06:16:07;3.83;;;1.30;;
16099;SDS011;8154;50.830;12.082;2023-08-01T06:18:35;3.40;;;1.55;;
16099;SDS011;8154;50.830;12.082;2023-08-01T06:21:01;3.15;;;1.30;;
16099;SDS011;8154;50.830;12.082;2023-08-01T06:23:28;3.42;;;1.40;;
16099;SDS011;8154;50.830;12.082;2023-08-01T06:25:55;3.35;;;1.30;;
16099;SDS011;8154;50.830;12.082;2023-08-01T06:28:21;4.13;;;1.50;;
16099;SDS011;8154;50.830;12.082;2023-08-01T06:30:49;3.03;;;1.30;;
16099;SDS011;8154;50.830;12.082;2023-08-01T06:33:15;3.45;;;1.40;;
16099;SDS011;8154;50.830;12.082;2023-08-01T06:35:42;3.42;;;1.30;;
16099;SDS011;8154;50.830;12.082;2023-08-01T06:38:09;3.05;;;1.30;;
16099;SDS011;8154;50.830;12.082;2023-08-01T06:40:35;3.20;;;1.20;;
16099;SDS011;8154;50.830;12.082;2023-08-01T06:43:02;2.90;;;1.30;;
16099;SDS011;8154;50.830;12.082;2023-08-01T06:45:28;3.47;;;1.40;;
16099;SDS011;8154;50.830;12.082;2023-08-01T06:47:54;3.67;;;1.67;;
16099;SDS011;8154;50.830;12.082;2023-08-01T06:50:21;4.10;;;1.42;;
16099;SDS011;8154;50.830;12.082;2023-08-01T06:52:47;3.77;;;1.50;;
16099;SDS011;8154;50.830;12.082;2023-08-01T06:55:13;3.28;;;1.40;;
16099;SDS011;8154;50.830;12.082;2023-08-01T06:57:41;3.42;;;1.40;;
16099;SDS011;8154;50.830;12.082;2023-08-01T07:00:07;2.97;;;1.30;;
16099;SDS011;8154;50.830;12.082;2023-08-01T07:02:34;2.70;;;1.30;;
16099;SDS011;8154;50.830;12.082;2023-08-01T07:05:01;3.20;;;1.40;;
16099;SDS011;8154;50.830;12.082;2023-08-01T07:07:28;3.47;;;1.35;;
16099;SDS011;8154;50.830;12.082;2023-08-01T07:09:54;3.17;;;1.33;;
16099;SDS011;8154;50.830;12.082;2023-08-01T07:12:20;3.08;;;1.42;;
16099;SDS011;8154;50.830;12.082;2023-08-01T07:14:47;2.85;;;1.30;;
16099;SDS011;8154;50.830;12.082;2023-08-01T07:17:14;3.50;;;1.30;;
16099;SDS011;8154;50.830;12.082;2023-08-01T07:19:41;3.15;;;1.20;;
16099;SDS011;8154;50.830;12.082;2023-08-01T07:22:07;4.00;;;1.30;;
16099;SDS011;8154;50.830;12.082;2023-08-01T07:24:34;3.53;;;1.33;;
16099;SDS011;8154;50.830;12.082;2023-08-01T07:27:03;3.15;;;1.40;;
16099;SDS011;8154;50.830;12.082;2023-08-01T07:29:30;4.60;;;1.40;;
16099;SDS011;8154;50.830;12.082;2023-08-01T07:31:57;2.53;;;1.15;;
16099;SDS011;8154;50.830;12.082;2023-08-01T07:34:23;4.45;;;1.33;;
16099;SDS011;8154;50.830;12.082;2023-08-01T07:36:50;3.33;;;1.33;;
16099;SDS011;8154;50.830;12.082;2023-08-01T07:39:16;3.10;;;1.02;;
16099;SDS011;8154;50.830;12.082;2023-08-01T07:41:43;3.80;;;1.27;;
16099;SDS011;8154;50.830;12.082;2023-08-01T07:44:09;3.72;;;1.20;;
16099;SDS011;8154;50.830;12.082;2023-08-01T07:46:35;2.90;;;1.10;;
16099;SDS011;8154;50.830;12.082;2023-08-01T07:49:01;3.35;;;1.20;;
16099;SDS011;8154;50.830;12.082;2023-08-01T07:51:28;2.92;;;1.20;;
16099;SDS011;8154;50.830;12.082;2023-08-01T07:53:57;4.17;;;1.37;;
16099;SDS011;8154;50.830;12.082;2023-08-01T07:56:23;3.35;;;1.33;;
16099;SDS011;8154;50.830;12.082;2023-08-01T07:58:49;3.58;;;1.40;;
16099;SDS011;8154;50.830;12.082;2023-08-01T08:01:16;3.95;;;1.50;;
16099;SDS011;8154;50.830;12.082;2023-08-01T08:03:42;5.75;;;1.50;;
16099;SDS011;8154;50.830;12.082;2023-08-01T08:06:08;4.20;;;1.50;;
16099;SDS011;8154;50.830;12.082;2023-08-01T08:08:35;3.65;;;1.20;;
16099;SDS011;8154;50.830;12.082;2023-08-01T08:11:02;4.00;;;1.30;;
16099;SDS011;8154;50.830;12.082;2023-08-01T08:13:29;4.88;;;1.50;;
16099;SDS011;8154;50.830;12.082;2023-08-01T08:15:55;3.15;;;1.20;;
16099;SDS011;8154;50.830;12.082;2023-08-01T08:18:23;2.97;;;1.20;;
16099;SDS011;8154;50.830;12.082;2023-08-01T08:20:49;4.20;;;1.40;;
16099;SDS011;8154;50.830;12.082;2023-08-01T08:23:16;2.47;;;1.27;;
16099;SDS011;8154;50.830;12.082;2023-08-01T08:25:42;3.63;;;1.50;;
16099;SDS011;8154;50.830;12.082;2023-08-01T08:28:31;3.33;;;1.17;;
16099;SDS011;8154;50.830;12.082;2023-08-01T08:31:00;3.80;;;1.30;;
16099;SDS011;8154;50.830;12.082;2023-08-01T08:33:28;3.72;;;1.30;;
16099;SDS011;8154;50.830;12.082;2023-08-01T08:35:55;3.75;;;1.30;;
16099;SDS011;8154;50.830;12.082;2023-08-01T08:38:21;3.95;;;1.20;;
16099;SDS011;8154;50.830;12.082;2023-08-01T08:43:27;3.07;;;1.30;;
16099;SDS011;8154;50.830;12.082;2023-08-01T08:45:56;2.50;;;1.00;;
16099;SDS011;8154;50.830;12.082;2023-08-01T08:48:25;4.28;;;1.10;;
16099;SDS011;8154;50.830;12.082;2023-08-01T08:50:53;3.10;;;1.30;;
16099;SDS011;8154;50.830;12.082;2023-08-01T08:53:22;2.30;;;1.23;;
16099;SDS011;8154;50.830;12.082;2023-08-01T08:55:52;4.20;;;1.27;;
16099;SDS011;8154;50.830;12.082;2023-08-01T08:58:19;3.90;;;1.10;;
16099;SDS011;8154;50.830;12.082;2023-08-01T09:00:49;2.97;;;1.10;;
16099;SDS011;8154;50.830;12.082;2023-08-01T09:03:18;3.70;;;1.35;;
16099;SDS011;8154;50.830;12.082;2023-08-01T09:05:48;2.60;;;1.13;;
16099;SDS011;8154;50.830;12.082;2023-08-01T09:08:20;2.93;;;1.13;;
16099;SDS011;8154;50.830;12.082;2023-08-01T09:10:47;2.78;;;1.20;;
16099;SDS011;8154;50.830;12.082;2023-08-01T09:13:14;3.25;;;1.10;;
16099;SDS011;8154;50.830;12.082;2023-08-01T09:15:41;2.95;;;1.13;;
16099;SDS011;8154;50.830;12.082;2023-08-01T09:18:11;2.58;;;1.10;;
16099;SDS011;8154;50.830;12.082;2023-08-01T09:20:55;3.87;;;1.20;;
16099;SDS011;8154;50.830;12.082;2023-08-01T09:23:28;2.67;;;1.20;;
16099;SDS011;8154;50.830;12.082;2023-08-01T09:25:56;2.47;;;1.05;;
16099;SDS011;8154;50.830;12.082;2023-08-01T09:28:23;2.95;;;1.27;;
16099;SDS011;8154;50.830;12.082;2023-08-01T09:30:53;3.17;;;1.20;;
16099;SDS011;8154;50.830;12.082;2023-08-01T09:33:23;2.37;;;1.00;;
16099;SDS011;8154;50.830;12.082;2023-08-01T09:35:51;3.28;;;1.40;;
16099;SDS011;8154;50.830;12.082;2023-08-01T09:38:18;2.70;;;1.10;;
16099;SDS011;8154;50.830;12.082;2023-08-01T09:40:45;1.95;;;0.90;;
16099;SDS011;8154;50.830;12.082;2023-08-01T09:43:13;3.08;;;1.08;;
16099;SDS011;8154;50.830;12.082;2023-08-01T09:45:50;3.00;;;1.20;;
16099;SDS011;8154;50.830;12.082;2023-08-01T09:48:23;2.58;;;1.10;;
16099;SDS011;8154;50.830;12.082;2023-08-01T09:51:07;2.65;;;0.90;;
16099;SDS011;8154;50.830;12.082;2023-08-01T09:53:36;2.45;;;1.00;;
16099;SDS011;8154;50.830;12.082;2023-08-01T09:56:28;2.55;;;1.30;;
16099;SDS011;8154;50.830;12.082;2023-08-01T09:58:55;2.13;;;0.80;;
16099;SDS011;8154;50.830;12.082;2023-08-01T10:01:26;2.85;;;1.00;;
16099;SDS011;8154;50.830;12.082;2023-08-01T10:03:54;2.08;;;0.80;;
16099;SDS011;8154;50.830;12.082;2023-08-01T10:06:23;1.77;;;0.90;;
16099;SDS011;8154;50.830;12.082;2023-08-01T10:08:59;1.70;;;0.82;;
16099;SDS011;8154;50.830;12.082;2023-08-01T10:11:26;2.30;;;1.03;;
16099;SDS011;8154;50.830;12.082;2023-08-01T10:13:56;1.80;;;0.90;;
16099;SDS011;8154;50.830;12.082;2023-08-01T10:16:23;2.13;;;1.00;;
16099;SDS011;8154;50.830;12.082;2023-08-01T10:18:51;2.20;;;0.90;;
16099;SDS011;8154;50.830;12.082;2023-08-01T10:21:17;2.45;;;1.00;;
16099;SDS011;8154;50.830;12.082;2023-08-01T10:23:48;1.43;;;0.70;;
16099;SDS011;8154;50.830;12.082;2023-08-01T10:26:15;2.17;;;0.90;;
16099;SDS011;8154;50.830;12.082;2023-08-01T10:28:49;2.35;;;0.90;;
16099;SDS011;8154;50.830;12.082;2023-08-01T10:31:17;3.00;;;1.23;;
16099;SDS011;8154;50.830;12.082;2023-08-01T10:33:46;3.15;;;1.20;;
16099;SDS011;8154;50.830;12.082;2023-08-01T10:49:36;2.90;;;1.40;;
16099;SDS011;8154;50.830;12.082;2023-08-01T10:52:16;3.22;;;1.42;;
16099;SDS011;8154;50.830;12.082;2023-08-01T10:54:44;3.95;;;1.80;;
16099;SDS011;8154;50.830;12.082;2023-08-01T10:57:16;4.03;;;1.90;;
16099;SDS011;8154;50.830;12.082;2023-08-01T10:59:45;3.13;;;1.70;;
16099;SDS011;8154;50.830;12.082;2023-08-01T11:02:12;4.17;;;1.80;;
16099;SDS011;8154;50.830;12.082;2023-08-01T11:04:54;3.72;;;1.70;;
16099;SDS011;8154;50.830;12.082;2023-08-01T11:07:30;3.92;;;1.73;;
16099;SDS011;8154;50.830;12.082;2023-08-01T11:10:04;3.97;;;1.90;;
16099;SDS011;8154;50.830;12.082;2023-08-01T11:12:34;3.97;;;1.55;;
16099;SDS011;8154;50.830;12.082;2023-08-01T11:15:03;4.23;;;1.90;;
16099;SDS011;8154;50.830;12.082;2023-08-01T11:17:32;3.67;;;1.75;;
16099;SDS011;8154;50.830;12.082;2023-08-01T11:20:02;3.67;;;1.70;;
16099;SDS011;8154;50.830;12.082;2023-08-01T11:22:30;3.20;;;1.50;;
16099;SDS011;8154;50.830;12.082;2023-08-01T11:24:59;3.50;;;1.70;;
16099;SDS011;8154;50.830;12.082;2023-08-01T11:27:25;4.87;;;1.90;;
16099;SDS011;8154;50.830;12.082;2023-08-01T11:29:53;4.03;;;2.00;;
16099;SDS011;8154;50.830;12.082;2023-08-01T11:32:20;3.70;;;1.80;;
16099;SDS011;8154;50.830;12.082;2023-08-01T11:34:47;3.58;;;1.60;;
16099;SDS011;8154;50.830;12.082;2023-08-01T11:37:14;4.13;;;1.83;;
16099;SDS011;8154;50.830;12.082;2023-08-01T11:39:41;3.73;;;1.90;;
16099;SDS011;8154;50.830;12.082;2023-08-01T11:42:13;3.50;;;1.73;;
16099;SDS011;8154;50.830;12.082;2023-08-01T11:44:46;3.38;;;1.52;;
16099;SDS011;8154;50.830;12.082;2023-08-01T11:47:13;4.90;;;2.20;;
16099;SDS011;8154;50.830;12.082;2023-08-01T11:49:47;3.97;;;1.90;;
16099;SDS011;8154;50.830;12.082;2023-08-01T11:54:54;3.78;;;1.73;;
16099;SDS011;8154;50.830;12.082;2023-08-01T11:57:21;3.72;;;1.70;;
16099;SDS011;8154;50.830;12.082;2023-08-01T11:59:57;3.88;;;1.77;;
16099;SDS011;8154;50.830;12.082;2023-08-01T12:02:27;3.80;;;1.90;;
16099;SDS011;8154;50.830;12.082;2023-08-01T12:04:57;3.20;;;1.70;;
16099;SDS011;8154;50.830;12.082;2023-08-01T12:07:25;4.07;;;1.88;;
16099;SDS011;8154;50.830;12.082;2023-08-01T12:09:59;3.42;;;1.60;;
16099;SDS011;8154;50.830;12.082;2023-08-01T12:12:28;4.22;;;2.15;;
16099;SDS011;8154;50.830;12.082;2023-08-01T12:14:55;4.95;;;1.88;;
16099;SDS011;8154;50.830;12.082;2023-08-01T12:17:22;3.73;;;1.80;;
16099;SDS011;8154;50.830;12.082;2023-08-01T12:19:48;3.53;;;1.50;;
16099;SDS011;8154;50.830;12.082;2023-08-01T12:22:15;3.75;;;1.63;;
16099;SDS011;8154;50.830;12.082;2023-08-01T12:24:41;3.42;;;1.67;;
16099;SDS011;8154;50.830;12.082;2023-08-01T12:27:08;3.55;;;1.70;;
16099;SDS011;8154;50.830;12.082;2023-08-01T12:29:35;3.37;;;1.70;;
16099;SDS011;8154;50.830;12.082;2023-08-01T12:32:03;3.55;;;1.60;;
16099;SDS011;8154;50.830;12.082;2023-08-01T12:34:30;3.50;;;1.58;;
16099;SDS011;8154;50.830;12.082;2023-08-01T12:36:56;2.90;;;1.58;;
16099;SDS011;8154;50.830;12.082;2023-08-01T12:39:23;3.63;;;1.70;;
16099;SDS011;8154;50.830;12.082;2023-08-01T12:41:52;3.23;;;1.70;;
16099;SDS011;8154;50.830;12.082;2023-08-01T12:44:22;3.65;;;1.70;;
16099;SDS011;8154;50.830;12.082;2023-08-01T12:46:49;2.85;;;1.60;;
16099;SDS011;8154;50.830;12.082;2023-08-01T12:49:17;3.45;;;1.73;;
16099;SDS011;8154;50.830;12.082;2023-08-01T12:51:44;4.05;;;1.83;;
16099;SDS011;8154;50.830;12.082;2023-08-01T12:54:11;3.50;;;1.90;;
16099;SDS011;8154;50.830;12.082;2023-08-01T12:56:38;3.80;;;1.95;;
16099;SDS011;8154;50.830;12.082;2023-08-01T12:59:05;3.17;;;1.50;;
16099;SDS011;8154;50.830;12.082;2023-08-01T13:01:31;3.28;;;1.65;;
16099;SDS011;8154;50.830;12.082;2023-08-01T13:03:58;3.78;;;1.67;;
16099;SDS011;8154;50.830;12.082;2023-08-01T13:06:24;2.73;;;1.60;;
16099;SDS011;8154;50.830;12.082;2023-08-01T13:08:51;3.80;;;1.73;;
16099;SDS011;8154;50.830;12.082;2023-08-01T13:11:17;3.55;;;1.67;;
16099;SDS011;8154;50.830;12.082;2023-08-01T13:13:44;4.38;;;1.73;;
16099;SDS011;8154;50.830;12.082;2023-08-01T13:16:11;4.60;;;1.77;;
16099;SDS011;8154;50.830;12.082;2023-08-01T13:18:38;2.93;;;1.57;;
16099;SDS011;8154;50.830;12.082;2023-08-01T13:21:09;3.58;;;1.77;;
16099;SDS011;8154;50.830;12.082;2023-08-01T13:23:37;4.13;;;1.70;;
16099;SDS011;8154;50.830;12.082;2023-08-01T13:26:04;3.15;;;1.45;;
16099;SDS011;8154;50.830;12.082;2023-08-01T13:28:32;3.85;;;1.45;;
16099;SDS011;8154;50.830;12.082;2023-08-01T13:30:58;3.33;;;1.60;;
16099;SDS011;8154;50.830;12.082;2023-08-01T13:33:24;2.95;;;1.50;;
16099;SDS011;8154;50.830;12.082;2023-08-01T13:35:51;3.25;;;1.60;;
16099;SDS011;8154;50.830;12.082;2023-08-01T13:38:19;3.03;;;1.50;;
16099;SDS011;8154;50.830;12.082;2023-08-01T13:40:46;3.55;;;1.70;;
16099;SDS011;8154;50.830;12.082;2023-08-01T13:43:13;3.87;;;1.87;;
16099;SDS011;8154;50.830;12.082;2023-08-01T13:45:39;2.88;;;1.52;;
16099;SDS011;8154;50.830;12.082;2023-08-01T13:48:06;3.80;;;1.90;;
16099;SDS011;8154;50.830;12.082;2023-08-01T13:50:33;2.92;;;1.52;;
16099;SDS011;8154;50.830;12.082;2023-08-01T13:53:00;3.13;;;1.70;;
16099;SDS011;8154;50.830;12.082;2023-08-01T13:55:27;3.70;;;1.60;;
16099;SDS011;8154;50.830;12.082;2023-08-01T13:57:53;3.30;;;1.60;;
16099;SDS011;8154;50.830;12.082;2023-08-01T14:00:20;3.53;;;1.60;;
16099;SDS011;8154;50.830;12.082;2023-08-01T14:03:15;4.20;;;1.83;;
16099;SDS011;8154;50.830;12.082;2023-08-01T14:05:42;4.45;;;2.00;;
16099;SDS011;8154;50.830;12.082;2023-08-01T14:08:09;3.83;;;1.70;;
16099;SDS011;8154;50.830;12.082;2023-08-01T14:10:36;3.83;;;1.70;;
16099;SDS011;8154;50.830;12.082;2023-08-01T14:13:03;4.55;;;1.98;;
16099;SDS011;8154;50.830;12.082;2023-08-01T14:15:29;4.43;;;1.92;;
16099;SDS011;8154;50.830;12.082;2023-08-01T14:17:55;3.00;;;1.50;;
16099;SDS011;8154;50.830;12.082;2023-08-01T14:20:22;3.63;;;1.70;;
16099;SDS011;8154;50.830;12.082;2023-08-01T14:22:48;4.13;;;1.92;;
16099;SDS011;8154;50.830;12.082;2023-08-01T14:25:14;3.20;;;1.60;;
16099;SDS011;8154;50.830;12.082;2023-08-01T14:27:40;2.85;;;1.48;;
16099;SDS011;8154;50.830;12.082;2023-08-01T14:30:10;3.20;;;1.65;;
16099;SDS011;8154;50.830;12.082;2023-08-01T14:32:37;3.93;;;1.90;;
16099;SDS011;8154;50.830;12.082;2023-08-01T14:35:04;3.47;;;1.80;;
16099;SDS011;8154;50.830;12.082;2023-08-01T14:37:32;4.55;;;1.80;;
16099;SDS011;8154;50.830;12.082;2023-08-01T14:39:58;3.47;;;1.60;;
16099;SDS011;8154;50.830;12.082;2023-08-01T14:42:25;3.63;;;1.67;;
16099;SDS011;8154;50.830;12.082;2023-08-01T14:44:52;4.23;;;1.90;;
16099;SDS011;8154;50.830;12.082;2023-08-01T14:47:20;4.63;;;1.98;;
16099;SDS011;8154;50.830;12.082;2023-08-01T14:49:46;4.68;;;1.80;;
16099;SDS011;8154;50.830;12.082;2023-08-01T14:52:12;3.63;;;1.73;;
16099;SDS011;8154;50.830;12.082;2023-08-01T14:54:39;3.60;;;1.80;;
16099;SDS011;8154;50.830;12.082;2023-08-01T14:57:05;3.30;;;1.60;;
16099;SDS011;8154;50.830;12.082;2023-08-01T14:59:32;3.75;;;1.77;;
16099;SDS011;8154;50.830;12.082;2023-08-01T15:01:58;3.47;;;1.73;;
16099;SDS011;8154;50.830;12.082;2023-08-01T15:04:25;4.55;;;2.10;;
16099;SDS011;8154;50.830;12.082;2023-08-01T15:06:52;4.00;;;1.80;;
16099;SDS011;8154;50.830;12.082;2023-08-01T15:09:18;3.77;;;2.10;;